Time;durP1;ratioP1;P1;durP2;ratioP2;P2;SDS_P1;SDS_P2;PMS_P1;PMS_P2;Temp;Humidity;BMP_temperature;BMP_pressure;BME280_temperature;BME280_humidity;BME280_pressure;Samples;Min_cycle;Max_cycle;Signal;HPM_P1;HPM_P2
2021/01/02 00:01:04;;;;;;;50.67;25.23;;;4.00;99.90;;;;;;5040088;28;20134;-55
2021/01/02 00:03:51;;;;;;;56.78;27.27;;;3.90;99.90;;;;;;5041836;28;20029;-56
2021/01/02 00:06:35;;;;;;;54.67;28.77;;;4.00;99.90;;;;;;5040677;28;20033;-54
2021/01/02 00:09:22;;;;;;;51.63;26.58;;;4.00;99.90;;;;;;5038901;28;20037;-58
2021/01/02 00:12:20;;;;;;;50.38;26.83;;;4.00;99.90;;;;;;5044126;28;20100;-57
2021/01/02 00:15:03;;;;;;;46.38;24.80;;;4.10;99.90;;;;;;5041260;28;20079;-54
2021/01/02 00:17:50;;;;;;;50.10;26.83;;;4.00;99.90;;;;;;5038474;28;20484;-57
2021/01/02 00:20:51;;;;;;;50.53;24.90;;;4.00;99.90;;;;;;5038039;28;20048;-52
2021/01/02 00:24:01;;;;;;;49.47;25.67;;;4.10;99.90;;;;;;5042326;28;20025;-53
2021/01/02 00:26:44;;;;;;;52.63;26.95;;;4.00;99.90;;;;;;5041234;28;20030;-57
2021/01/02 00:29:39;;;;;;;53.10;26.00;;;4.00;99.90;;;;;;5039741;28;20025;-52
2021/01/02 00:32:12;;;;;;;48.67;25.52;;;4.00;99.90;;;;;;5040949;28;20021;-50
2021/01/02 00:35:11;;;;;;;49.05;25.15;;;4.00;99.90;;;;;;5038077;28;20013;-53
2021/01/02 00:37:42;;;;;;;56.22;27.02;;;4.00;99.90;;;;;;5031451;28;20489;-60
2021/01/02 00:40:09;;;;;;;46.88;26.52;;;4.10;99.90;;;;;;5031428;28;20079;-57
2021/01/02 00:42:40;;;;;;;54.35;28.23;;;4.00;99.90;;;;;;5033479;28;20084;-54
2021/01/02 00:45:08;;;;;;;44.90;25.27;;;4.00;99.90;;;;;;5031905;28;20026;-54
2021/01/02 00:47:38;;;;;;;;;;;4.00;99.90;;;;;;5032193;28;20030;-59
2021/01/02 00:50:08;;;;;;;49.78;26.55;;;4.00;99.90;;;;;;5032703;28;19917;-52
2021/01/02 00:53:05;;;;;;;52.58;26.73;;;3.90;99.90;;;;;;5031143;28;20396;-56
2021/01/02 00:56:00;;;;;;;50.75;26.23;;;4.00;99.90;;;;;;5032674;28;20481;-53
2021/01/02 00:58:38;;;;;;;50.42;28.30;;;4.00;99.90;;;;;;4683069;28;10000481;-56
2021/01/02 01:01:06;;;;;;;47.22;27.65;;;4.00;99.90;;;;;;5029385;28;20053;-56
2021/01/02 01:03:34;;;;;;;47.08;26.75;;;4.00;99.90;;;;;;5031689;28;20061;-53
2021/01/02 01:06:03;;;;;;;52.15;25.30;;;4.00;99.90;;;;;;5032639;28;20033;-54
2021/01/02 01:08:34;;;;;;;52.70;26.60;;;4.00;99.90;;;;;;5032053;28;20029;-52
2021/01/02 01:11:09;;;;;;;48.35;24.92;;;4.00;99.90;;;;;;5033182;28;20025;-55
2021/01/02 01:13:40;;;;;;;51.90;26.42;;;4.00;99.90;;;;;;5031722;28;20025;-52
2021/01/02 01:16:06;;;;;;;48.10;27.58;;;4.00;99.90;;;;;;5031404;28;20030;-53
2021/01/02 01:18:58;;;;;;;49.28;26.33;;;4.10;99.90;;;;;;5030498;28;20036;-54
2021/01/02 01:21:30;;;;;;;51.53;28.92;;;4.10;99.90;;;;;;5031191;28;20025;-52
2021/01/02 01:24:23;;;;;;;54.95;30.40;;;4.00;99.90;;;;;;5031899;28;20109;-54
2021/01/02 01:27:15;;;;;;;53.80;29.77;;;4.10;99.90;;;;;;5031740;28;20041;-52
2021/01/02 01:29:46;;;;;;;49.50;28.60;;;4.10;99.90;;;;;;5030283;28;20029;-54
2021/01/02 01:32:14;;;;;;;54.65;27.27;;;4.10;99.90;;;;;;5030717;28;20029;-53
2021/01/02 01:34:46;;;;;;;56.35;30.98;;;4.10;99.90;;;;;;5031828;28;20022;-54
2021/01/02 01:37:17;;;;;;;53.67;24.90;;;4.00;99.90;;;;;;5032101;28;20079;-56
2021/01/02 01:39:50;;;;;;;55.75;26.20;;;4.10;99.90;;;;;;5031181;28;20049;-54
2021/01/02 01:42:21;;;;;;;58.00;30.23;;;4.00;99.90;;;;;;5031195;28;20034;-52
2021/01/02 01:44:59;;;;;;;55.50;28.27;;;4.00;99.90;;;;;;5030729;28;20034;-51
2021/01/02 01:47:56;;;;;;;50.63;28.50;;;3.90;99.90;;;;;;5031880;28;20037;-57
2021/01/02 01:50:26;;;;;;;49.63;26.48;;;3.90;99.90;;;;;;5031507;28;20435;-55
2021/01/02 01:52:52;;;;;;;53.90;29.80;;;4.00;99.90;;;;;;5032184;28;20025;-54
2021/01/02 01:55:31;;;;;;;51.53;27.52;;;3.90;99.90;;;;;;5031943;28;20022;-56
2021/01/02 01:58:10;;;;;;;58.03;27.98;;;3.90;99.90;;;;;;5031802;28;20025;-54
2021/01/02 02:00:44;;;;;;;52.75;28.67;;;4.00;99.90;;;;;;5031434;28;20053;-54
2021/01/02 02:03:24;;;;;;;52.38;28.60;;;4.00;99.90;;;;;;5030444;28;20473;-52
2021/01/02 02:06:01;;;;;;;51.63;26.23;;;4.00;99.90;;;;;;5030583;28;20161;-56
2021/01/02 02:08:56;;;;;;;51.78;28.23;;;4.00;99.90;;;;;;5029793;28;20026;-52
2021/01/02 02:11:36;;;;;;;51.00;28.52;;;4.00;99.90;;;;;;5031429;28;20026;-53
2021/01/02 02:14:13;;;;;;;55.00;29.83;;;4.00;99.90;;;;;;5030649;28;20073;-56
2021/01/02 02:16:56;;;;;;;57.78;26.90;;;4.00;99.90;;;;;;5031669;28;20104;-51
2021/01/02 02:19:56;;;;;;;57.78;28.98;;;4.00;99.90;;;;;;5030110;28;20504;-52
2021/01/02 02:22:27;;;;;;;54.75;28.67;;;3.90;99.90;;;;;;5031759;28;20512;-55
2021/01/02 02:24:55;;;;;;;57.63;29.02;;;4.00;99.90;;;;;;5030479;28;20116;-54
2021/01/02 02:27:34;;;;;;;59.50;29.48;;;3.90;99.90;;;;;;5031694;28;20025;-51
2021/01/02 02:30:08;;;;;;;58.42;28.27;;;3.90;99.90;;;;;;5029558;28;20026;-51
2021/01/02 02:32:43;;;;;;;54.92;27.05;;;4.00;99.90;;;;;;5031628;28;20381;-52
2021/01/02 02:35:11;;;;;;;62.47;30.50;;;3.90;99.90;;;;;;5031689;28;20129;-52
2021/01/02 02:37:39;;;;;;;56.83;28.77;;;3.90;99.90;;;;;;5031515;28;20412;-57
2021/01/02 02:40:07;;;;;;;58.63;26.98;;;3.90;99.90;;;;;;5029771;28;20033;-54
2021/01/02 02:42:36;;;;;;;61.25;32.65;;;4.00;99.90;;;;;;5031477;28;20022;-53
2021/01/02 02:45:02;;;;;;;;;;;4.00;99.90;;;;;;5031980;28;20038;-53
2021/01/02 02:47:31;;;;;;;57.28;28.15;;;4.00;99.90;;;;;;5030242;28;19905;-55
2021/01/02 02:49:58;;;;;;;56.47;28.75;;;3.90;99.90;;;;;;5030705;28;20439;-54
2021/01/02 02:52:37;;;;;;;55.15;29.25;;;3.90;99.90;;;;;;5031681;28;20075;-54
2021/01/02 02:55:04;;;;;;;59.63;29.23;;;3.90;99.90;;;;;;5033700;28;20033;-55
2021/01/02 02:57:32;;;;;;;53.40;29.15;;;3.90;99.90;;;;;;5035968;28;20093;-55
2021/01/02 02:59:58;;;;;;;59.03;30.02;;;3.90;99.90;;;;;;5034729;28;20087;-51
2021/01/02 03:02:25;;;;;;;61.50;30.38;;;3.90;99.90;;;;;;5034480;28;20485;-51
2021/01/02 03:04:50;;;;;;;63.05;30.75;;;3.90;99.90;;;;;;5037013;28;20025;-54
2021/01/02 03:07:22;;;;;;;66.70;32.17;;;3.90;99.90;;;;;;5036852;28;20076;-57
2021/01/02 03:09:48;;;;;;;59.40;28.17;;;3.90;99.90;;;;;;5034822;28;20511;-54
2021/01/02 03:12:15;;;;;;;64.32;31.00;;;4.00;99.90;;;;;;5033379;28;20116;-51
2021/01/02 03:14:41;;;;;;;66.03;33.10;;;3.90;99.90;;;;;;5033670;28;20029;-52
2021/01/02 03:17:06;;;;;;;65.63;31.48;;;3.90;99.90;;;;;;5033681;28;20546;-51
2021/01/02 03:19:32;;;;;;;67.70;31.08;;;3.90;99.90;;;;;;5034257;28;20032;-54
2021/01/02 03:22:01;;;;;;;62.78;32.03;;;3.80;99.90;;;;;;5034722;28;20022;-51
2021/01/02 03:24:27;;;;;;;63.50;32.97;;;3.90;99.90;;;;;;5033109;28;20091;-53
2021/01/02 03:26:52;;;;;;;68.13;31.88;;;3.90;99.90;;;;;;5034702;28;20386;-55
2021/01/02 03:29:21;;;;;;;63.83;31.65;;;3.90;99.90;;;;;;5033642;28;20044;-56
2021/01/02 03:31:46;;;;;;;69.32;31.02;;;3.90;99.90;;;;;;5033289;28;20112;-52
2021/01/02 03:34:12;;;;;;;62.80;31.00;;;3.90;99.90;;;;;;5034524;28;20168;-53
2021/01/02 03:36:38;;;;;;;66.50;32.72;;;3.90;99.90;;;;;;5032897;28;20017;-54
2021/01/02 03:39:05;;;;;;;59.05;29.65;;;3.90;99.90;;;;;;5032434;28;20075;-51
2021/01/02 03:41:34;;;;;;;64.22;31.55;;;3.90;99.90;;;;;;5033280;28;20029;-52
2021/01/02 03:44:20;;;;;;;75.35;33.60;;;3.90;99.90;;;;;;5033942;28;20029;-54
2021/01/02 03:46:45;;;;;;;;;;;3.90;99.90;;;;;;5034989;28;20083;-55
2021/01/02 03:49:11;;;;;;;71.60;34.25;;;3.90;99.90;;;;;;5033568;28;19991;-51
2021/01/02 03:51:37;;;;;;;67.78;34.63;;;3.90;99.90;;;;;;5034342;28;20029;-55
2021/01/02 03:54:07;;;;;;;55.33;31.73;;;3.90;99.90;;;;;;5033907;28;20029;-55
2021/01/02 03:56:33;;;;;;;65.80;33.28;;;3.90;99.90;;;;;;5032285;28;20032;-55
2021/01/02 03:58:58;;;;;;;64.30;33.05;;;3.90;99.90;;;;;;5032951;28;20396;-56
2021/01/02 04:01:25;;;;;;;73.32;35.03;;;3.80;99.90;;;;;;5034086;28;20034;-58
2021/01/02 04:03:56;;;;;;;70.95;36.88;;;3.80;99.90;;;;;;5033035;28;20033;-56
2021/01/02 04:06:25;;;;;;;73.38;35.90;;;3.80;99.90;;;;;;5031696;28;20037;-51
2021/01/02 04:08:54;;;;;;;65.00;33.05;;;3.80;99.90;;;;;;5033072;28;20075;-57
2021/01/02 04:11:20;;;;;;;76.00;33.38;;;3.80;99.90;;;;;;5034193;28;20032;-51
2021/01/02 04:13:46;;;;;;;64.13;32.47;;;3.80;99.90;;;;;;5033947;28;20384;-57
2021/01/02 04:16:12;;;;;;;63.65;31.15;;;3.80;99.90;;;;;;5033674;28;20425;-53
2021/01/02 04:18:38;;;;;;;71.22;34.13;;;3.80;99.90;;;;;;5031772;28;20029;-54
2021/01/02 04:21:04;;;;;;;69.82;35.35;;;3.80;99.90;;;;;;5032509;28;20022;-52
2021/01/02 04:23:32;;;;;;;64.40;32.83;;;3.80;99.90;;;;;;5032573;28;20070;-52
2021/01/02 04:25:58;;;;;;;68.85;33.60;;;3.80;99.90;;;;;;5032352;28;20485;-53
2021/01/02 04:28:24;;;;;;;61.95;33.72;;;3.70;99.90;;;;;;5031463;28;20056;-51
2021/01/02 04:30:49;;;;;;;72.15;34.47;;;3.70;99.90;;;;;;5032063;28;20480;-53
2021/01/02 04:33:15;;;;;;;61.97;30.88;;;3.80;99.90;;;;;;5032069;28;20035;-51
2021/01/02 04:35:42;;;;;;;69.47;36.33;;;3.80;99.90;;;;;;5033245;28;20017;-54
2021/01/02 04:38:10;;;;;;;64.70;33.17;;;3.80;99.90;;;;;;5031577;28;20116;-57
2021/01/02 04:40:40;;;;;;;66.93;35.85;;;3.80;99.90;;;;;;5031817;28;20021;-54
2021/01/02 04:43:09;;;;;;;63.45;31.83;;;3.80;99.90;;;;;;5033402;28;20112;-52
2021/01/02 04:45:35;;;;;;;64.82;31.77;;;3.80;99.90;;;;;;5033837;28;20087;-50
2021/01/02 04:48:05;;;;;;;64.88;34.90;;;3.80;99.90;;;;;;5033796;28;20060;-57
2021/01/02 04:50:33;;;;;;;67.05;33.83;;;3.70;99.90;;;;;;5032261;28;20397;-53
2021/01/02 04:53:02;;;;;;;64.30;31.95;;;3.70;99.90;;;;;;5033535;28;20049;-55
2021/01/02 04:55:30;;;;;;;74.20;35.58;;;3.70;99.90;;;;;;5033030;28;20473;-51
2021/01/02 04:57:59;;;;;;;72.90;35.78;;;3.70;99.90;;;;;;5031494;28;20035;-56
2021/01/02 05:00:25;;;;;;;;;;;3.70;99.90;;;;;;5033009;28;20485;-53
2021/01/02 05:02:52;;;;;;;72.18;32.30;;;3.60;99.90;;;;;;5031629;28;19979;-57
2021/01/02 05:05:18;;;;;;;76.32;35.67;;;3.70;99.90;;;;;;5032929;28;20029;-58
2021/01/02 05:07:44;;;;;;;67.38;34.45;;;3.70;99.90;;;;;;5031208;28;20024;-51
2021/01/02 05:10:11;;;;;;;73.13;36.53;;;3.70;99.90;;;;;;5032031;28;20025;-52
2021/01/02 05:12:37;;;;;;;72.22;36.25;;;3.70;99.90;;;;;;5031659;28;20025;-54
2021/01/02 05:15:16;;;;;;;70.40;34.03;;;3.70;99.90;;;;;;5031073;28;20021;-57
2021/01/02 05:17:42;;;;;;;66.53;33.78;;;3.70;99.90;;;;;;5030694;28;20022;-57
2021/01/02 05:20:15;;;;;;;72.60;34.25;;;3.70;99.90;;;;;;5030690;28;20155;-57
2021/01/02 05:22:43;;;;;;;75.25;35.47;;;3.70;99.90;;;;;;5031553;28;20409;-53
2021/01/02 05:25:21;;;;;;;74.20;35.17;;;3.70;99.90;;;;;;5031324;28;20029;-52
2021/01/02 05:27:49;;;;;;;71.50;33.58;;;3.70;99.90;;;;;;5032376;28;20033;-55
2021/01/02 05:30:29;;;;;;;67.18;33.80;;;3.70;99.90;;;;;;5032045;28;20022;-52
2021/01/02 05:32:58;;;;;;;69.60;32.42;;;3.60;99.90;;;;;;5033138;28;20030;-55
2021/01/02 05:35:44;;;;;;;68.43;36.30;;;3.70;99.90;;;;;;5032873;28;20029;-55
2021/01/02 05:38:22;;;;;;;70.50;33.40;;;3.60;99.90;;;;;;5032115;28;20056;-55
2021/01/02 05:40:50;;;;;;;77.93;35.35;;;3.60;99.90;;;;;;5030730;28;20025;-53
2021/01/02 05:43:18;;;;;;;78.97;38.42;;;3.60;99.90;;;;;;5032369;28;20118;-52
2021/01/02 05:45:43;;;;;;;73.25;36.38;;;3.60;99.90;;;;;;5032343;28;20026;-55
2021/01/02 05:48:11;;;;;;;68.30;36.20;;;3.70;99.90;;;;;;5031744;28;20051;-54
2021/01/02 05:50:46;;;;;;;71.80;35.20;;;3.70;99.90;;;;;;5030475;28;20022;-57
2021/01/02 05:53:32;;;;;;;70.07;35.65;;;3.60;99.90;;;;;;5030889;28;20025;-57
2021/01/02 05:56:08;;;;;;;72.20;34.72;;;3.60;99.90;;;;;;5032026;28;20416;-56
2021/01/02 05:58:47;;;;;;;71.93;35.17;;;3.60;99.90;;;;;;5030082;28;20428;-55
2021/01/02 06:01:18;;;;;;;70.00;34.25;;;3.60;99.90;;;;;;5030525;28;20443;-56
2021/01/02 06:03:57;;;;;;;74.53;35.22;;;3.60;99.90;;;;;;5030752;28;20029;-53
2021/01/02 06:06:22;;;;;;;;;;;3.60;99.90;;;;;;5032486;28;20032;-53
2021/01/02 06:08:50;;;;;;;70.47;33.42;;;3.60;99.90;;;;;;5031136;28;19909;-54
2021/01/02 06:11:20;;;;;;;73.13;34.30;;;3.60;99.90;;;;;;5031589;28;20032;-50
2021/01/02 06:13:49;;;;;;;74.10;35.35;;;3.60;99.90;;;;;;5031577;28;20029;-57
2021/01/02 06:16:15;;;;;;;65.95;36.25;;;3.70;99.90;;;;;;5030363;28;20022;-51
2021/01/02 06:18:46;;;;;;;67.35;33.10;;;3.70;99.90;;;;;;5030844;28;20120;-55
2021/01/02 06:21:19;;;;;;;68.18;34.50;;;3.70;99.90;;;;;;5032027;28;20021;-54
2021/01/02 06:23:46;;;;;;;65.32;35.17;;;3.70;99.90;;;;;;5030649;28;20063;-53
2021/01/02 06:26:14;;;;;;;66.55;35.83;;;3.70;99.90;;;;;;5030646;28;20392;-53
2021/01/02 06:28:42;;;;;;;66.22;30.65;;;3.60;99.90;;;;;;5030997;28;20033;-55
2021/01/02 06:31:13;;;;;;;71.63;35.25;;;3.60;99.90;;;;;;5034682;28;20037;-56
2021/01/02 06:33:50;;;;;;;71.18;34.33;;;3.60;99.90;;;;;;5035794;28;20389;-56
2021/01/02 06:36:35;;;;;;;69.90;35.17;;;3.50;99.90;;;;;;5035950;28;20026;-59
2021/01/02 06:39:26;;;;;;;72.25;36.03;;;3.50;99.90;;;;;;5035000;28;20029;-51
2021/01/02 06:41:53;;;;;;;58.13;29.77;;;3.50;99.90;;;;;;5034427;28;20029;-53
2021/01/02 06:44:42;;;;;;;63.92;31.95;;;3.50;99.90;;;;;;5034513;28;20026;-56
2021/01/02 06:47:21;;;;;;;59.78;31.15;;;3.50;99.90;;;;;;5034328;28;20045;-54
2021/01/02 06:49:47;;;;;;;;;;;3.50;99.90;;;;;;5068013;22;20095;-63
2021/01/02 06:52:32;;;;;;;67.18;30.38;;;3.50;99.90;;;;;;5054100;28;19911;-61
2021/01/02 06:55:21;;;;;;;68.93;34.13;;;3.50;99.90;;;;;;5035978;28;20021;-63
2021/01/02 06:57:47;;;;;;;60.60;28.08;;;3.50;99.90;;;;;;5053671;28;20482;-62
2021/01/02 07:00:27;;;;;;;63.22;32.38;;;3.50;99.90;;;;;;5035240;28;20421;-62
2021/01/02 07:02:56;;;;;;;66.93;30.20;;;3.40;99.90;;;;;;5035764;28;20032;-62
2021/01/02 07:05:47;;;;;;;64.60;31.73;;;3.40;99.90;;;;;;5053734;28;20028;-63
2021/01/02 07:08:42;;;;;;;63.25;31.27;;;3.40;99.90;;;;;;5053472;28;20065;-63
2021/01/02 07:11:36;;;;;;;67.63;31.65;;;3.40;99.90;;;;;;5053205;28;20048;-62
2021/01/02 07:14:11;;;;;;;63.70;32.78;;;3.50;99.90;;;;;;5053462;28;20031;-62
2021/01/02 07:16:38;;;;;;;58.15;29.58;;;3.50;99.90;;;;;;5053417;28;20025;-62
2021/01/02 07:19:05;;;;;;;66.60;32.60;;;3.50;99.90;;;;;;5052798;28;20033;-63
2021/01/02 07:21:39;;;;;;;56.42;27.48;;;3.40;99.90;;;;;;5035445;28;20430;-64
2021/01/02 07:24:27;;;;;;;66.78;31.60;;;3.50;99.90;;;;;;5035160;28;20043;-60
2021/01/02 07:26:57;;;;;;;64.80;29.07;;;3.40;99.90;;;;;;5050504;28;20055;-62
2021/01/02 07:29:25;;;;;;;58.88;29.27;;;3.40;99.90;;;;;;5034579;28;20460;-62
2021/01/02 07:31:51;;;;;;;55.65;27.00;;;3.40;99.90;;;;;;5054851;28;20483;-60
2021/01/02 07:34:20;;;;;;;62.92;30.27;;;3.50;99.90;;;;;;5047089;28;20108;-61
2021/01/02 07:36:49;;;;;;;59.88;29.63;;;3.40;99.90;;;;;;5033711;28;20511;-63
2021/01/02 07:39:18;;;;;;;67.10;30.05;;;3.50;99.90;;;;;;5032328;28;20509;-61
2021/01/02 07:41:44;;;;;;;59.08;30.35;;;3.50;99.90;;;;;;5049061;28;20472;-61
2021/01/02 07:44:19;;;;;;;55.55;27.25;;;3.50;99.90;;;;;;5052932;28;20087;-62
2021/01/02 07:46:45;;;;;;;57.30;30.33;;;3.50;99.90;;;;;;5053128;28;20566;-62
2021/01/02 07:49:19;;;;;;;58.33;29.05;;;3.50;99.90;;;;;;5052077;28;20033;-63
2021/01/02 07:51:49;;;;;;;65.43;30.02;;;3.50;99.90;;;;;;5052785;28;20049;-63
2021/01/02 07:54:35;;;;;;;58.92;27.48;;;3.40;99.90;;;;;;5052506;28;20052;-62
2021/01/02 07:57:03;;;;;;;58.30;29.30;;;3.50;99.90;;;;;;5053025;28;20025;-62
2021/01/02 07:59:31;;;;;;;56.15;27.38;;;3.50;99.90;;;;;;5049605;28;20025;-63
2021/01/02 08:02:04;;;;;;;;;;;3.40;99.90;;;;;;5015448;28;20547;-63
2021/01/02 08:04:31;;;;;;;55.75;28.35;;;3.50;99.90;;;;;;5014919;28;19912;-62
2021/01/02 08:06:59;;;;;;;61.60;29.27;;;3.40;99.90;;;;;;5014940;28;20120;-62
2021/01/02 08:09:26;;;;;;;55.38;28.38;;;3.40;99.90;;;;;;5031653;28;20033;-62
2021/01/02 08:12:08;;;;;;;56.00;29.85;;;3.50;99.90;;;;;;5014651;28;20060;-60
2021/01/02 08:14:41;;;;;;;63.60;29.30;;;3.40;99.90;;;;;;5014594;28;20557;-62
2021/01/02 08:17:18;;;;;;;57.25;27.33;;;3.50;99.90;;;;;;5032882;28;20037;-59
2021/01/02 08:19:46;;;;;;;60.00;28.10;;;3.50;99.90;;;;;;5014039;28;20037;-62
2021/01/02 08:22:12;;;;;;;;;;;3.50;99.90;;;;;;5032762;28;20041;-63
2021/01/02 08:24:39;;;;;;;56.85;27.67;;;3.40;99.90;;;;;;5032378;28;19950;-62
2021/01/02 08:27:05;;;;;;;55.25;27.17;;;3.50;99.90;;;;;;5047757;28;20025;-60
2021/01/02 08:29:32;;;;;;;60.10;27.90;;;3.50;99.90;;;;;;5033182;28;20582;-62
2021/01/02 08:32:10;;;;;;;55.53;27.15;;;3.60;99.90;;;;;;5034143;28;20028;-61
2021/01/02 08:34:36;;;;;;;58.50;27.80;;;3.50;99.90;;;;;;5052222;28;20024;-62
2021/01/02 08:37:08;;;;;;;60.03;30.95;;;3.50;99.90;;;;;;5034103;28;20279;-58
2021/01/02 08:39:38;;;;;;;54.40;28.60;;;3.50;99.90;;;;;;5033466;28;20051;-60
2021/01/02 08:42:05;;;;;;;54.30;27.95;;;3.60;99.90;;;;;;5052264;28;20075;-56
2021/01/02 08:44:35;;;;;;;57.88;28.70;;;3.60;99.90;;;;;;5051712;28;20365;-60
2021/01/02 08:47:04;;;;;;;57.30;28.20;;;3.60;99.90;;;;;;5033467;28;20029;-63
2021/01/02 08:49:33;;;;;;;51.70;26.00;;;3.60;99.90;;;;;;5032600;28;20029;-58
2021/01/02 08:52:22;;;;;;;52.97;28.30;;;3.60;99.90;;;;;;5051171;28;20021;-61
2021/01/02 08:54:54;;;;;;;57.42;27.50;;;3.60;99.90;;;;;;5033511;28;20028;-60
2021/01/02 08:57:27;;;;;;;51.58;25.95;;;3.70;99.90;;;;;;5033620;28;20024;-55
2021/01/02 09:00:05;;;;;;;54.50;24.00;;;3.70;99.90;;;;;;5049969;28;20025;-61
2021/01/02 09:02:31;;;;;;;56.30;26.40;;;3.70;99.90;;;;;;5033581;28;20067;-57
2021/01/02 09:05:06;;;;;;;53.13;27.10;;;3.70;99.90;;;;;;5037828;28;20100;-61
2021/01/02 09:07:31;;;;;;;51.72;25.40;;;3.60;99.90;;;;;;5031059;28;20028;-62
2021/01/02 09:10:17;;;;;;;56.03;28.60;;;3.70;99.90;;;;;;5012696;28;20392;-60
2021/01/02 09:12:58;;;;;;;58.28;27.30;;;3.70;99.90;;;;;;5028783;28;20021;-61
2021/01/02 09:15:41;;;;;;;52.25;25.40;;;3.70;99.90;;;;;;5048991;28;20025;-62
2021/01/02 09:18:07;;;;;;;53.50;24.38;;;3.60;99.90;;;;;;5051801;28;20496;-60
2021/01/02 09:20:32;;;;;;;50.80;26.33;;;3.60;99.90;;;;;;5034321;28;20094;-60
2021/01/02 09:22:59;;;;;;;58.83;29.35;;;3.60;99.90;;;;;;5038611;28;20538;-62
2021/01/02 09:25:32;;;;;;;53.03;25.73;;;3.60;99.90;;;;;;5030840;28;20110;-61
2021/01/02 09:28:17;;;;;;;58.53;26.25;;;3.70;99.90;;;;;;5031710;28;20028;-62
2021/01/02 09:30:47;;;;;;;57.38;27.00;;;3.60;99.90;;;;;;5047456;28;20044;-62
2021/01/02 09:33:13;;;;;;;54.38;25.00;;;3.70;99.90;;;;;;5050177;28;20545;-60
2021/01/02 09:35:40;;;;;;;50.95;24.85;;;3.70;99.90;;;;;;5050361;28;20427;-60
2021/01/02 09:38:07;;;;;;;57.53;26.25;;;3.70;99.90;;;;;;5031856;28;20487;-60
2021/01/02 09:40:36;;;;;;;51.33;25.88;;;3.80;99.90;;;;;;5032715;28;20025;-59
2021/01/02 09:43:02;;;;;;;;;;;3.80;99.90;;;;;;5051926;28;20113;-61
2021/01/02 09:45:28;;;;;;;48.92;22.95;;;3.90;99.90;;;;;;5051467;28;19931;-59
2021/01/02 09:47:54;;;;;;;49.83;22.50;;;3.90;99.90;;;;;;5035057;28;20036;-62
2021/01/02 09:50:20;;;;;;;56.40;25.75;;;3.90;99.90;;;;;;5031801;28;20104;-63
2021/01/02 09:52:45;;;;;;;56.28;27.10;;;3.80;99.90;;;;;;5050112;28;20073;-63
2021/01/02 09:55:12;;;;;;;54.25;28.35;;;3.90;99.90;;;;;;5050258;28;20061;-63
2021/01/02 09:57:37;;;;;;;56.03;25.95;;;4.00;99.90;;;;;;5050182;28;20475;-62
2021/01/02 10:00:08;;;;;;;57.05;27.70;;;4.10;99.90;;;;;;5031884;28;20108;-64
2021/01/02 10:02:34;;;;;;;59.95;29.08;;;4.00;99.90;;;;;;5032277;28;20404;-61
2021/01/02 10:05:00;;;;;;;60.05;26.48;;;3.90;99.90;;;;;;5032062;28;20043;-64
2021/01/02 10:07:26;;;;;;;55.65;27.20;;;4.10;99.90;;;;;;5050125;28;20115;-63
2021/01/02 10:09:51;;;;;;;53.70;28.02;;;4.10;99.90;;;;;;5049965;28;20140;-64
2021/01/02 10:12:18;;;;;;;52.55;27.67;;;4.10;99.90;;;;;;5051338;28;20060;-64
2021/01/02 10:14:45;;;;;;;54.90;26.13;;;4.20;99.90;;;;;;5032827;28;20032;-62
2021/01/02 10:17:12;;;;;;;59.70;28.80;;;4.30;99.90;;;;;;5032591;28;20024;-64
2021/01/02 10:19:46;;;;;;;64.37;28.10;;;4.30;99.90;;;;;;5031765;28;20053;-63
2021/01/02 10:22:17;;;;;;;56.40;27.83;;;4.30;99.90;;;;;;5032247;28;20115;-62
2021/01/02 10:24:47;;;;;;;58.80;28.42;;;4.30;99.90;;;;;;5050313;28;20412;-63
2021/01/02 10:27:13;;;;;;;61.47;28.67;;;4.10;99.90;;;;;;5049975;28;20032;-62
2021/01/02 10:29:45;;;;;;;59.22;28.33;;;4.10;99.90;;;;;;5029286;28;20028;-62
2021/01/02 10:32:12;;;;;;;66.35;31.30;;;4.20;99.90;;;;;;5037304;28;20453;-63
2021/01/02 10:34:39;;;;;;;62.92;28.65;;;4.10;99.90;;;;;;5040536;28;20025;-64
2021/01/02 10:37:04;;;;;;;61.35;30.25;;;4.20;99.90;;;;;;5037844;28;20475;-62
2021/01/02 10:39:30;;;;;;;68.57;32.60;;;4.30;99.90;;;;;;5036499;28;20127;-64
2021/01/02 10:41:59;;;;;;;63.10;31.95;;;4.20;99.90;;;;;;5037885;28;20021;-64
2021/01/02 10:44:25;;;;;;;66.95;29.95;;;4.30;99.90;;;;;;5021343;28;20040;-64
2021/01/02 10:46:52;;;;;;;68.95;30.95;;;4.30;99.90;;;;;;5038210;28;20140;-63
2021/01/02 10:49:20;;;;;;;67.20;32.63;;;4.30;99.90;;;;;;5040619;28;20033;-57
2021/01/02 10:51:46;;;;;;;65.50;33.40;;;4.30;99.90;;;;;;5048777;28;20037;-58
2021/01/02 10:54:13;;;;;;;65.47;33.30;;;4.30;99.90;;;;;;5046739;28;20036;-58
2021/01/02 10:57:06;;;;;;;63.25;30.73;;;4.30;99.90;;;;;;5065439;28;20028;-55
2021/01/02 10:59:31;;;;;;;68.90;33.50;;;4.30;99.90;;;;;;5050966;28;20041;-59
2021/01/02 11:01:57;;;;;;;67.43;31.23;;;4.30;99.90;;;;;;5056817;28;20571;-58
2021/01/02 11:04:26;;;;;;;61.78;30.05;;;4.40;99.90;;;;;;5050227;28;20025;-56
2021/01/02 11:06:53;;;;;;;63.08;29.50;;;4.40;99.90;;;;;;5069678;28;20048;-59
2021/01/02 11:09:21;;;;;;;58.55;27.58;;;4.40;99.90;;;;;;5068792;28;20025;-59
2021/01/02 11:11:47;;;;;;;65.82;30.40;;;4.40;99.90;;;;;;5030325;28;20029;-57
2021/01/02 11:14:13;;;;;;;65.05;31.23;;;4.40;99.90;;;;;;5050083;28;20036;-57
2021/01/02 11:16:43;;;;;;;57.15;30.98;;;4.40;99.90;;;;;;5034951;28;20388;-56
2021/01/02 11:19:20;;;;;;;58.72;29.98;;;4.40;99.90;;;;;;5034242;28;20033;-55
2021/01/02 11:21:47;;;;;;;61.38;29.60;;;4.50;99.90;;;;;;5053220;28;20029;-56
2021/01/02 11:24:15;;;;;;;64.72;31.30;;;4.50;99.90;;;;;;5053634;28;20113;-54
2021/01/02 11:26:49;;;;;;;56.75;28.65;;;4.50;99.90;;;;;;5046733;28;20058;-55
2021/01/02 11:29:19;;;;;;;65.95;30.45;;;4.50;99.90;;;;;;5054241;28;20024;-54
2021/01/02 11:31:47;;;;;;;58.47;28.17;;;4.60;99.90;;;;;;5073361;28;20464;-55
2021/01/02 11:34:14;;;;;;;65.60;30.83;;;4.60;99.90;;;;;;5054869;28;20059;-54
2021/01/02 11:36:41;;;;;;;59.28;30.52;;;4.60;99.90;;;;;;5042492;28;20025;-52
2021/01/02 11:39:08;;;;;;;66.30;28.92;;;4.60;99.90;;;;;;5038382;28;20506;-54
2021/01/02 11:41:39;;;;;;;54.45;30.40;;;4.70;99.90;;;;;;5062192;28;20345;-57
2021/01/02 11:44:07;;;;;;;64.82;29.75;;;4.70;99.90;;;;;;5055374;28;20029;-54
2021/01/02 11:46:39;;;;;;;65.05;32.55;;;4.60;99.90;;;;;;5035286;28;20087;-53
2021/01/02 11:49:06;;;;;;;54.85;28.58;;;4.70;99.90;;;;;;5050255;28;20041;-55
2021/01/02 11:51:35;;;;;;;56.38;28.17;;;4.80;99.90;;;;;;5056419;28;20036;-54
2021/01/02 11:54:01;;;;;;;57.00;30.02;;;4.90;99.90;;;;;;5055233;28;20084;-58
2021/01/02 11:56:28;;;;;;;62.35;27.75;;;4.80;99.90;;;;;;5035442;28;20063;-58
2021/01/02 11:58:56;;;;;;;54.15;26.35;;;4.90;99.90;;;;;;5052200;28;20500;-58
2021/01/02 12:01:23;;;;;;;62.33;27.02;;;4.90;99.90;;;;;;5053339;28;20036;-54
2021/01/02 12:03:49;;;;;;;54.67;26.80;;;4.90;99.90;;;;;;5035037;28;20048;-56
2021/01/02 12:06:15;;;;;;;53.47;27.95;;;4.80;99.90;;;;;;5052999;28;20131;-59
2021/01/02 12:08:41;;;;;;;53.72;29.00;;;4.70;99.90;;;;;;5034922;28;20110;-56
2021/01/02 12:11:07;;;;;;;58.53;29.10;;;4.80;99.90;;;;;;5053126;28;20028;-59
2021/01/02 12:13:39;;;;;;;60.78;28.45;;;4.80;99.90;;;;;;5052732;28;20018;-55
2021/01/02 12:16:06;;;;;;;64.47;30.17;;;4.90;99.90;;;;;;5034747;28;20025;-54
2021/01/02 12:18:32;;;;;;;64.75;27.90;;;4.90;99.90;;;;;;5051972;28;20028;-56
2021/01/02 12:21:01;;;;;;;55.17;27.23;;;5.00;99.90;;;;;;5052429;28;20079;-60
2021/01/02 12:23:27;;;;;;;55.10;26.75;;;5.00;99.90;;;;;;5034508;28;20053;-54
2021/01/02 12:25:53;;;;;;;63.90;30.30;;;5.00;99.90;;;;;;5051989;28;20061;-59
2021/01/02 12:28:19;;;;;;;55.05;30.23;;;5.00;99.90;;;;;;5033839;28;20032;-52
2021/01/02 12:30:45;;;;;;;54.35;25.45;;;5.00;99.90;;;;;;5052238;28;20021;-58
2021/01/02 12:33:11;;;;;;;58.78;28.00;;;5.10;99.90;;;;;;5034769;28;20031;-54
2021/01/02 12:35:37;;;;;;;56.25;29.13;;;5.10;99.90;;;;;;5052780;28;20036;-58
2021/01/02 12:38:02;;;;;;;50.17;26.08;;;5.00;99.90;;;;;;5052520;28;20036;-57
2021/01/02 12:40:30;;;;;;;65.15;28.10;;;4.80;99.90;;;;;;5043303;28;20234;-56
2021/01/02 12:42:56;;;;;;;55.33;27.50;;;4.80;99.90;;;;;;5017766;28;20029;-58
2021/01/02 12:45:22;;;;;;;51.00;27.05;;;4.90;99.90;;;;;;5030674;28;20029;-59
2021/01/02 12:47:48;;;;;;;57.55;29.70;;;5.00;99.90;;;;;;5047833;28;20086;-57
2021/01/02 12:50:15;;;;;;;55.92;28.73;;;4.90;99.90;;;;;;5073084;23;20048;-51
2021/01/02 12:52:41;;;;;;;54.10;26.10;;;4.90;99.90;;;;;;5090028;28;20309;-50
2021/01/02 12:55:07;;;;;;;59.08;27.75;;;4.90;99.90;;;;;;5089003;28;20103;-50
2021/01/02 12:57:33;;;;;;;55.30;26.90;;;4.90;99.90;;;;;;5086555;28;20046;-57
2021/01/02 12:59:59;;;;;;;54.08;27.85;;;4.90;99.90;;;;;;5089847;28;20063;-52
2021/01/02 13:02:25;;;;;;;58.47;27.05;;;4.90;99.90;;;;;;5090525;28;20031;-55